Terminal Aerodrome Forecast
Issued by NWS Grand Forks, ND

Home | Current Version | Previous Version | Text Only | Print | Product List | Glossary Off
Versions: 1 2 3 4 5 6 7 8 9 10 11 12 13 14 15 16 17 18 19 20 21 22 23 24 25 26 27 28 29 30 31

000
FTUS43 KFGF 230336 AAC
TAFGFK
TAF AMD
KGFK 230336Z 2304/2324 04012G22KT 6SM -SN SCT020 BKN025
      TEMPO 2304/2306 2SM -SN SCT010 BKN020
     FM230600 04010KT 5SM -SN OVC015
     FM231400 05012KT 6SM -SN BKN012 OVC020
     FM231900 06013KT P6SM OVC025=

USA.gov is the U.S. government's official web portal to all federal, state and local government web resources and services.